sensor_id;sensor_type;location;lat;lon;timestamp;P1;durP1;ratioP1;P2;durP2;ratioP2
70297;SDS011;57702;44.420;20.298;2023-01-25T00:01:25;7.20;;;6.50;;
70297;SDS011;57702;44.420;20.298;2023-01-25T00:03:51;10.98;;;6.88;;
70297;SDS011;57702;44.420;20.298;2023-01-25T00:06:17;5.10;;;3.30;;
70297;SDS011;57702;44.420;20.298;2023-01-25T00:08:47;6.40;;;4.50;;
70297;SDS011;57702;44.420;20.298;2023-01-25T00:11:13;6.65;;;3.78;;
70297;SDS011;57702;44.420;20.298;2023-01-25T00:13:41;16.17;;;5.05;;
70297;SDS011;57702;44.420;20.298;2023-01-25T00:16:07;3.92;;;3.60;;
70297;SDS011;57702;44.420;20.298;2023-01-25T00:18:33;11.20;;;4.25;;
70297;SDS011;57702;44.420;20.298;2023-01-25T00:21:10;6.22;;;5.60;;
70297;SDS011;57702;44.420;20.298;2023-01-25T00:23:36;15.48;;;5.57;;
70297;SDS011;57702;44.420;20.298;2023-01-25T00:26:02;4.63;;;4.22;;
70297;SDS011;57702;44.420;20.298;2023-01-25T00:28:28;8.25;;;4.65;;
70297;SDS011;57702;44.420;20.298;2023-01-25T00:30:58;5.07;;;4.57;;
70297;SDS011;57702;44.420;20.298;2023-01-25T00:33:32;8.75;;;4.13;;
70297;SDS011;57702;44.420;20.298;2023-01-25T00:35:58;5.38;;;4.22;;
70297;SDS011;57702;44.420;20.298;2023-01-25T00:38:29;5.38;;;3.42;;
70297;SDS011;57702;44.420;20.298;2023-01-25T00:40:58;28.33;;;9.70;;
70297;SDS011;57702;44.420;20.298;2023-01-25T00:43:24;3.80;;;3.35;;
70297;SDS011;57702;44.420;20.298;2023-01-25T00:45:51;4.18;;;3.45;;
70297;SDS011;57702;44.420;20.298;2023-01-25T00:48:17;7.85;;;3.67;;
70297;SDS011;57702;44.420;20.298;2023-01-25T00:50:44;15.82;;;4.78;;
70297;SDS011;57702;44.420;20.298;2023-01-25T00:53:10;13.82;;;4.55;;
70297;SDS011;57702;44.420;20.298;2023-01-25T00:55:36;11.85;;;4.88;;
70297;SDS011;57702;44.420;20.298;2023-01-25T00:58:02;8.15;;;3.60;;
70297;SDS011;57702;44.420;20.298;2023-01-25T01:00:29;4.57;;;4.20;;
70297;SDS011;57702;44.420;20.298;2023-01-25T01:02:55;12.05;;;4.97;;
70297;SDS011;57702;44.420;20.298;2023-01-25T01:05:21;7.55;;;4.30;;
70297;SDS011;57702;44.420;20.298;2023-01-25T01:07:48;5.78;;;5.25;;
70297;SDS011;57702;44.420;20.298;2023-01-25T01:10:14;6.15;;;5.25;;
70297;SDS011;57702;44.420;20.298;2023-01-25T01:12:40;4.85;;;3.05;;
70297;SDS011;57702;44.420;20.298;2023-01-25T01:15:07;5.78;;;3.30;;
70297;SDS011;57702;44.420;20.298;2023-01-25T01:17:33;3.15;;;2.72;;
70297;SDS011;57702;44.420;20.298;2023-01-25T01:20:00;7.00;;;4.20;;
70297;SDS011;57702;44.420;20.298;2023-01-25T01:22:26;2.53;;;2.42;;
70297;SDS011;57702;44.420;20.298;2023-01-25T01:24:52;3.15;;;2.95;;
70297;SDS011;57702;44.420;20.298;2023-01-25T01:27:18;11.80;;;6.30;;
70297;SDS011;57702;44.420;20.298;2023-01-25T01:29:45;8.48;;;2.97;;
70297;SDS011;57702;44.420;20.298;2023-01-25T01:32:11;3.00;;;2.78;;
70297;SDS011;57702;44.420;20.298;2023-01-25T01:34:37;9.05;;;6.07;;
70297;SDS011;57702;44.420;20.298;2023-01-25T01:37:03;10.25;;;5.93;;
70297;SDS011;57702;44.420;20.298;2023-01-25T01:39:29;24.90;;;7.47;;
70297;SDS011;57702;44.420;20.298;2023-01-25T01:41:55;13.35;;;5.45;;
70297;SDS011;57702;44.420;20.298;2023-01-25T01:44:39;16.45;;;8.70;;
70297;SDS011;57702;44.420;20.298;2023-01-25T01:47:07;10.52;;;6.75;;
70297;SDS011;57702;44.420;20.298;2023-01-25T01:49:37;6.68;;;5.18;;
70297;SDS011;57702;44.420;20.298;2023-01-25T01:52:13;9.10;;;4.90;;
70297;SDS011;57702;44.420;20.298;2023-01-25T01:54:42;16.30;;;5.68;;
70297;SDS011;57702;44.420;20.298;2023-01-25T01:57:12;5.47;;;4.82;;
70297;SDS011;57702;44.420;20.298;2023-01-25T01:59:41;7.93;;;5.05;;
70297;SDS011;57702;44.420;20.298;2023-01-25T02:02:08;8.80;;;5.53;;
70297;SDS011;57702;44.420;20.298;2023-01-25T02:04:35;4.45;;;3.42;;
70297;SDS011;57702;44.420;20.298;2023-01-25T02:09:27;15.00;;;5.30;;
70297;SDS011;57702;44.420;20.298;2023-01-25T02:11:54;13.20;;;6.05;;
70297;SDS011;57702;44.420;20.298;2023-01-25T02:14:21;14.10;;;6.22;;
70297;SDS011;57702;44.420;20.298;2023-01-25T02:16:47;16.85;;;5.78;;
70297;SDS011;57702;44.420;20.298;2023-01-25T02:19:57;9.27;;;4.15;;
70297;SDS011;57702;44.420;20.298;2023-01-25T02:22:03;12.90;;;4.40;;
70297;SDS011;57702;44.420;20.298;2023-01-25T02:24:34;9.18;;;6.03;;
70297;SDS011;57702;44.420;20.298;2023-01-25T02:27:03;5.00;;;4.28;;
70297;SDS011;57702;44.420;20.298;2023-01-25T02:29:29;2.88;;;2.67;;
70297;SDS011;57702;44.420;20.298;2023-01-25T02:31:59;6.85;;;4.40;;
70297;SDS011;57702;44.420;20.298;2023-01-25T02:34:27;8.80;;;7.35;;
70297;SDS011;57702;44.420;20.298;2023-01-25T02:36:53;3.92;;;3.58;;
70297;SDS011;57702;44.420;20.298;2023-01-25T02:39:19;7.15;;;4.05;;
70297;SDS011;57702;44.420;20.298;2023-01-25T02:41:48;7.35;;;5.97;;
70297;SDS011;57702;44.420;20.298;2023-01-25T02:44:16;21.42;;;5.40;;
70297;SDS011;57702;44.420;20.298;2023-01-25T02:46:42;14.32;;;5.25;;
70297;SDS011;57702;44.420;20.298;2023-01-25T02:49:12;16.50;;;6.20;;
70297;SDS011;57702;44.420;20.298;2023-01-25T02:51:41;11.45;;;6.85;;
70297;SDS011;57702;44.420;20.298;2023-01-25T02:54:08;12.38;;;5.82;;
70297;SDS011;57702;44.420;20.298;2023-01-25T02:56:34;5.93;;;4.75;;
70297;SDS011;57702;44.420;20.298;2023-01-25T02:59:01;15.73;;;5.55;;
70297;SDS011;57702;44.420;20.298;2023-01-25T03:01:34;11.77;;;5.32;;
70297;SDS011;57702;44.420;20.298;2023-01-25T03:04:00;15.13;;;3.95;;
70297;SDS011;57702;44.420;20.298;2023-01-25T03:06:26;5.57;;;5.03;;
70297;SDS011;57702;44.420;20.298;2023-01-25T03:08:52;16.10;;;6.47;;
70297;SDS011;57702;44.420;20.298;2023-01-25T03:11:18;14.18;;;5.60;;
70297;SDS011;57702;44.420;20.298;2023-01-25T03:13:44;14.02;;;6.53;;
70297;SDS011;57702;44.420;20.298;2023-01-25T03:16:11;5.15;;;4.57;;
70297;SDS011;57702;44.420;20.298;2023-01-25T03:18:37;16.48;;;6.43;;
70297;SDS011;57702;44.420;20.298;2023-01-25T03:21:08;12.93;;;5.20;;
70297;SDS011;57702;44.420;20.298;2023-01-25T03:23:34;1.80;;;1.80;;
70297;SDS011;57702;44.420;20.298;2023-01-25T03:26:08;11.60;;;4.50;;
70297;SDS011;57702;44.420;20.298;2023-01-25T03:28:34;3.78;;;2.05;;
70297;SDS011;57702;44.420;20.298;2023-01-25T03:31:00;5.18;;;3.58;;
70297;SDS011;57702;44.420;20.298;2023-01-25T03:33:26;6.10;;;4.20;;
70297;SDS011;57702;44.420;20.298;2023-01-25T03:35:53;8.23;;;5.10;;
70297;SDS011;57702;44.420;20.298;2023-01-25T03:38:19;8.82;;;5.38;;
70297;SDS011;57702;44.420;20.298;2023-01-25T03:40:46;2.72;;;2.53;;
70297;SDS011;57702;44.420;20.298;2023-01-25T03:43:12;5.97;;;4.75;;
70297;SDS011;57702;44.420;20.298;2023-01-25T03:45:38;4.07;;;3.75;;
70297;SDS011;57702;44.420;20.298;2023-01-25T03:48:04;5.25;;;2.88;;
70297;SDS011;57702;44.420;20.298;2023-01-25T03:50:31;6.93;;;5.07;;
70297;SDS011;57702;44.420;20.298;2023-01-25T03:53:00;3.55;;;3.00;;
70297;SDS011;57702;44.420;20.298;2023-01-25T03:55:31;6.75;;;3.75;;
70297;SDS011;57702;44.420;20.298;2023-01-25T03:57:57;3.88;;;3.60;;
70297;SDS011;57702;44.420;20.298;2023-01-25T04:00:23;14.07;;;4.95;;
70297;SDS011;57702;44.420;20.298;2023-01-25T04:02:50;7.47;;;5.25;;
70297;SDS011;57702;44.420;20.298;2023-01-25T04:05:16;5.47;;;3.17;;
70297;SDS011;57702;44.420;20.298;2023-01-25T04:07:43;15.23;;;5.57;;
70297;SDS011;57702;44.420;20.298;2023-01-25T04:10:09;3.35;;;3.15;;
70297;SDS011;57702;44.420;20.298;2023-01-25T04:12:35;1.90;;;1.80;;
70297;SDS011;57702;44.420;20.298;2023-01-25T04:15:02;6.18;;;4.10;;
70297;SDS011;57702;44.420;20.298;2023-01-25T04:17:28;10.23;;;3.63;;
70297;SDS011;57702;44.420;20.298;2023-01-25T04:19:54;5.88;;;4.45;;
70297;SDS011;57702;44.420;20.298;2023-01-25T04:22:21;3.83;;;3.20;;
70297;SDS011;57702;44.420;20.298;2023-01-25T04:24:47;13.00;;;5.07;;
70297;SDS011;57702;44.420;20.298;2023-01-25T04:27:13;4.35;;;4.05;;
70297;SDS011;57702;44.420;20.298;2023-01-25T04:29:39;10.07;;;3.60;;
70297;SDS011;57702;44.420;20.298;2023-01-25T04:32:05;3.65;;;3.38;;
70297;SDS011;57702;44.420;20.298;2023-01-25T04:34:31;12.40;;;4.93;;
70297;SDS011;57702;44.420;20.298;2023-01-25T04:36:57;7.57;;;4.38;;
70297;SDS011;57702;44.420;20.298;2023-01-25T04:39:24;3.85;;;3.33;;
70297;SDS011;57702;44.420;20.298;2023-01-25T04:41:50;24.30;;;5.95;;
70297;SDS011;57702;44.420;20.298;2023-01-25T04:44:16;5.60;;;5.07;;
70297;SDS011;57702;44.420;20.298;2023-01-25T04:46:42;6.15;;;4.30;;
70297;SDS011;57702;44.420;20.298;2023-01-25T04:49:08;3.50;;;3.08;;
70297;SDS011;57702;44.420;20.298;2023-01-25T04:51:34;29.52;;;10.27;;
70297;SDS011;57702;44.420;20.298;2023-01-25T04:54:01;9.05;;;5.30;;
70297;SDS011;57702;44.420;20.298;2023-01-25T04:56:27;3.63;;;3.22;;
70297;SDS011;57702;44.420;20.298;2023-01-25T04:58:53;8.25;;;6.53;;
70297;SDS011;57702;44.420;20.298;2023-01-25T05:01:19;7.70;;;4.60;;
70297;SDS011;57702;44.420;20.298;2023-01-25T05:03:45;12.45;;;4.68;;
70297;SDS011;57702;44.420;20.298;2023-01-25T05:06:11;8.75;;;5.20;;
70297;SDS011;57702;44.420;20.298;2023-01-25T05:08:38;13.38;;;8.25;;
70297;SDS011;57702;44.420;20.298;2023-01-25T05:11:04;15.27;;;5.65;;
70297;SDS011;57702;44.420;20.298;2023-01-25T05:13:30;18.08;;;6.82;;
70297;SDS011;57702;44.420;20.298;2023-01-25T05:15:56;16.10;;;8.38;;
70297;SDS011;57702;44.420;20.298;2023-01-25T05:18:23;28.38;;;8.32;;
70297;SDS011;57702;44.420;20.298;2023-01-25T05:20:53;25.73;;;11.15;;
70297;SDS011;57702;44.420;20.298;2023-01-25T05:23:19;38.95;;;10.00;;
70297;SDS011;57702;44.420;20.298;2023-01-25T05:25:46;22.02;;;7.05;;
70297;SDS011;57702;44.420;20.298;2023-01-25T05:28:30;4.00;;;3.75;;
70297;SDS011;57702;44.420;20.298;2023-01-25T05:30:57;12.75;;;6.40;;
70297;SDS011;57702;44.420;20.298;2023-01-25T05:33:23;17.13;;;6.50;;
70297;SDS011;57702;44.420;20.298;2023-01-25T05:35:49;14.07;;;6.45;;
70297;SDS011;57702;44.420;20.298;2023-01-25T05:38:15;12.45;;;6.63;;
70297;SDS011;57702;44.420;20.298;2023-01-25T05:40:41;10.93;;;4.10;;
70297;SDS011;57702;44.420;20.298;2023-01-25T05:43:08;16.05;;;6.88;;
70297;SDS011;57702;44.420;20.298;2023-01-25T05:45:34;80.43;;;14.85;;
70297;SDS011;57702;44.420;20.298;2023-01-25T05:48:00;8.32;;;6.68;;
70297;SDS011;57702;44.420;20.298;2023-01-25T05:50:26;31.77;;;6.88;;
70297;SDS011;57702;44.420;20.298;2023-01-25T05:52:53;7.90;;;5.22;;
70297;SDS011;57702;44.420;20.298;2023-01-25T05:55:19;27.55;;;5.18;;
70297;SDS011;57702;44.420;20.298;2023-01-25T05:57:45;21.38;;;6.63;;
70297;SDS011;57702;44.420;20.298;2023-01-25T06:00:11;14.90;;;5.90;;
70297;SDS011;57702;44.420;20.298;2023-01-25T06:02:38;20.73;;;7.43;;
70297;SDS011;57702;44.420;20.298;2023-01-25T06:05:04;44.40;;;13.85;;
70297;SDS011;57702;44.420;20.298;2023-01-25T06:07:34;37.95;;;12.13;;
70297;SDS011;57702;44.420;20.298;2023-01-25T06:10:01;17.50;;;7.47;;
70297;SDS011;57702;44.420;20.298;2023-01-25T06:12:27;17.00;;;4.38;;
70297;SDS011;57702;44.420;20.298;2023-01-25T06:14:53;7.95;;;3.67;;
70297;SDS011;57702;44.420;20.298;2023-01-25T06:17:20;22.13;;;7.15;;
70297;SDS011;57702;44.420;20.298;2023-01-25T06:19:46;11.00;;;6.25;;
70297;SDS011;57702;44.420;20.298;2023-01-25T06:22:13;16.70;;;7.25;;
70297;SDS011;57702;44.420;20.298;2023-01-25T06:24:40;49.05;;;10.23;;
70297;SDS011;57702;44.420;20.298;2023-01-25T06:27:07;10.85;;;5.05;;
70297;SDS011;57702;44.420;20.298;2023-01-25T06:29:33;37.50;;;10.50;;
70297;SDS011;57702;44.420;20.298;2023-01-25T06:32:01;32.88;;;9.73;;
70297;SDS011;57702;44.420;20.298;2023-01-25T06:34:27;9.73;;;7.63;;
70297;SDS011;57702;44.420;20.298;2023-01-25T06:36:54;30.02;;;10.55;;
70297;SDS011;57702;44.420;20.298;2023-01-25T06:39:20;10.23;;;6.13;;
70297;SDS011;57702;44.420;20.298;2023-01-25T06:41:46;7.78;;;5.88;;
70297;SDS011;57702;44.420;20.298;2023-01-25T06:44:13;39.20;;;9.70;;
70297;SDS011;57702;44.420;20.298;2023-01-25T06:46:39;39.72;;;11.35;;
70297;SDS011;57702;44.420;20.298;2023-01-25T06:49:05;26.88;;;15.25;;
70297;SDS011;57702;44.420;20.298;2023-01-25T06:51:31;13.18;;;10.00;;
70297;SDS011;57702;44.420;20.298;2023-01-25T06:54:00;26.63;;;9.57;;
70297;SDS011;57702;44.420;20.298;2023-01-25T06:56:27;27.58;;;11.52;;
70297;SDS011;57702;44.420;20.298;2023-01-25T06:58:53;32.30;;;8.38;;
70297;SDS011;57702;44.420;20.298;2023-01-25T07:01:21;19.63;;;8.38;;
70297;SDS011;57702;44.420;20.298;2023-01-25T07:03:51;10.90;;;6.50;;
70297;SDS011;57702;44.420;20.298;2023-01-25T07:06:19;23.08;;;6.80;;
70297;SDS011;57702;44.420;20.298;2023-01-25T07:08:46;16.83;;;7.75;;
70297;SDS011;57702;44.420;20.298;2023-01-25T07:11:13;18.70;;;10.90;;
70297;SDS011;57702;44.420;20.298;2023-01-25T07:13:41;19.50;;;7.78;;
70297;SDS011;57702;44.420;20.298;2023-01-25T07:16:11;12.45;;;10.15;;
70297;SDS011;57702;44.420;20.298;2023-01-25T07:18:38;14.05;;;10.68;;
70297;SDS011;57702;44.420;20.298;2023-01-25T07:21:07;10.55;;;5.63;;
70297;SDS011;57702;44.420;20.298;2023-01-25T07:23:34;22.08;;;12.05;;
70297;SDS011;57702;44.420;20.298;2023-01-25T07:26:02;24.55;;;11.68;;
70297;SDS011;57702;44.420;20.298;2023-01-25T07:28:29;8.70;;;7.18;;
70297;SDS011;57702;44.420;20.298;2023-01-25T07:31:02;25.52;;;8.77;;
70297;SDS011;57702;44.420;20.298;2023-01-25T07:33:29;27.27;;;8.18;;
70297;SDS011;57702;44.420;20.298;2023-01-25T07:36:03;13.88;;;5.72;;
70297;SDS011;57702;44.420;20.298;2023-01-25T07:38:30;41.95;;;14.68;;
70297;SDS011;57702;44.420;20.298;2023-01-25T07:40:56;21.83;;;11.70;;
70297;SDS011;57702;44.420;20.298;2023-01-25T07:43:23;11.55;;;7.78;;
70297;SDS011;57702;44.420;20.298;2023-01-25T07:45:50;46.35;;;14.15;;
70297;SDS011;57702;44.420;20.298;2023-01-25T07:48:17;32.25;;;10.40;;
70297;SDS011;57702;44.420;20.298;2023-01-25T07:50:44;10.93;;;6.57;;
70297;SDS011;57702;44.420;20.298;2023-01-25T07:53:17;5.72;;;4.57;;
70297;SDS011;57702;44.420;20.298;2023-01-25T07:55:57;11.07;;;7.85;;
70297;SDS011;57702;44.420;20.298;2023-01-25T07:58:24;24.48;;;6.07;;
70297;SDS011;57702;44.420;20.298;2023-01-25T08:00:50;14.90;;;6.47;;
70297;SDS011;57702;44.420;20.298;2023-01-25T08:03:19;33.03;;;10.80;;
70297;SDS011;57702;44.420;20.298;2023-01-25T08:05:46;20.58;;;12.32;;
70297;SDS011;57702;44.420;20.298;2023-01-25T08:08:13;37.08;;;11.25;;
70297;SDS011;57702;44.420;20.298;2023-01-25T08:10:39;33.10;;;9.15;;
70297;SDS011;57702;44.420;20.298;2023-01-25T08:13:06;12.15;;;6.38;;
70297;SDS011;57702;44.420;20.298;2023-01-25T08:15:33;7.07;;;4.47;;
70297;SDS011;57702;44.420;20.298;2023-01-25T08:17:59;23.50;;;10.15;;
70297;SDS011;57702;44.420;20.298;2023-01-25T08:20:25;13.05;;;6.85;;
70297;SDS011;57702;44.420;20.298;2023-01-25T08:22:55;4.55;;;4.15;;
70297;SDS011;57702;44.420;20.298;2023-01-25T08:25:21;9.10;;;4.32;;
70297;SDS011;57702;44.420;20.298;2023-01-25T08:27:49;27.13;;;9.27;;
70297;SDS011;57702;44.420;20.298;2023-01-25T08:30:16;5.25;;;4.53;;
70297;SDS011;57702;44.420;20.298;2023-01-25T08:32:42;17.70;;;7.57;;
70297;SDS011;57702;44.420;20.298;2023-01-25T08:35:09;13.55;;;8.18;;
70297;SDS011;57702;44.420;20.298;2023-01-25T08:37:35;13.77;;;7.80;;
70297;SDS011;57702;44.420;20.298;2023-01-25T08:40:01;52.10;;;18.27;;
70297;SDS011;57702;44.420;20.298;2023-01-25T08:42:27;34.63;;;16.23;;
70297;SDS011;57702;44.420;20.298;2023-01-25T08:44:56;19.27;;;9.93;;
70297;SDS011;57702;44.420;20.298;2023-01-25T08:47:22;20.60;;;9.25;;
70297;SDS011;57702;44.420;20.298;2023-01-25T08:49:49;21.52;;;9.02;;
70297;SDS011;57702;44.420;20.298;2023-01-25T08:52:16;37.28;;;12.23;;
70297;SDS011;57702;44.420;20.298;2023-01-25T08:54:42;11.25;;;7.70;;
70297;SDS011;57702;44.420;20.298;2023-01-25T08:57:09;14.48;;;9.52;;
70297;SDS011;57702;44.420;20.298;2023-01-25T08:59:35;7.63;;;4.32;;
70297;SDS011;57702;44.420;20.298;2023-01-25T09:02:01;6.60;;;5.25;;
70297;SDS011;57702;44.420;20.298;2023-01-25T09:04:28;5.97;;;5.05;;
70297;SDS011;57702;44.420;20.298;2023-01-25T09:06:59;10.88;;;6.80;;
70297;SDS011;57702;44.420;20.298;2023-01-25T09:09:25;8.32;;;5.07;;
70297;SDS011;57702;44.420;20.298;2023-01-25T09:11:55;31.20;;;11.68;;
70297;SDS011;57702;44.420;20.298;2023-01-25T09:14:21;7.15;;;6.30;;
70297;SDS011;57702;44.420;20.298;2023-01-25T09:16:48;37.67;;;12.32;;
70297;SDS011;57702;44.420;20.298;2023-01-25T09:19:15;17.02;;;7.90;;
70297;SDS011;57702;44.420;20.298;2023-01-25T09:21:41;5.90;;;3.65;;
70297;SDS011;57702;44.420;20.298;2023-01-25T09:24:08;13.02;;;5.57;;
70297;SDS011;57702;44.420;20.298;2023-01-25T09:26:36;34.53;;;10.93;;
70297;SDS011;57702;44.420;20.298;2023-01-25T09:29:03;14.45;;;6.75;;
70297;SDS011;57702;44.420;20.298;2023-01-25T09:31:32;47.08;;;10.63;;
70297;SDS011;57702;44.420;20.298;2023-01-25T09:33:59;6.55;;;4.00;;
70297;SDS011;57702;44.420;20.298;2023-01-25T09:36:25;9.68;;;5.30;;
70297;SDS011;57702;44.420;20.298;2023-01-25T09:38:52;9.98;;;4.38;;
70297;SDS011;57702;44.420;20.298;2023-01-25T09:49:34;4.40;;;4.13;;
70297;SDS011;57702;44.420;20.298;2023-01-25T09:51:52;6.40;;;3.92;;
70297;SDS011;57702;44.420;20.298;2023-01-25T09:54:30;8.68;;;4.78;;
70297;SDS011;57702;44.420;20.298;2023-01-25T10:00:05;31.40;;;11.20;;
70297;SDS011;57702;44.420;20.298;2023-01-25T10:05:12;122.30;;;29.52;;
70297;SDS011;57702;44.420;20.298;2023-01-25T10:10:11;20.00;;;5.68;;
70297;SDS011;57702;44.420;20.298;2023-01-25T10:15:47;11.07;;;9.15;;
70297;SDS011;57702;44.420;20.298;2023-01-25T10:20:57;38.42;;;9.52;;
70297;SDS011;57702;44.420;20.298;2023-01-25T10:26:28;24.38;;;8.38;;
70297;SDS011;57702;44.420;20.298;2023-01-25T10:31:25;2.20;;;2.08;;
70297;SDS011;57702;44.420;20.298;2023-01-25T10:33:53;12.70;;;5.30;;
70297;SDS011;57702;44.420;20.298;2023-01-25T10:36:21;55.88;;;14.60;;
70297;SDS011;57702;44.420;20.298;2023-01-25T10:38:52;4.07;;;3.80;;
70297;SDS011;57702;44.420;20.298;2023-01-25T10:43:51;19.67;;;7.68;;
70297;SDS011;57702;44.420;20.298;2023-01-25T10:46:38;29.58;;;13.43;;
70297;SDS011;57702;44.420;20.298;2023-01-25T10:52:11;51.13;;;19.77;;
70297;SDS011;57702;44.420;20.298;2023-01-25T10:54:38;61.15;;;20.60;;
70297;SDS011;57702;44.420;20.298;2023-01-25T10:57:08;102.90;;;31.27;;
70297;SDS011;57702;44.420;20.298;2023-01-25T10:59:34;35.50;;;13.52;;
70297;SDS011;57702;44.420;20.298;2023-01-25T11:04:53;28.30;;;11.30;;
70297;SDS011;57702;44.420;20.298;2023-01-25T11:07:26;50.60;;;18.58;;
70297;SDS011;57702;44.420;20.298;2023-01-25T11:09:54;96.15;;;28.63;;
70297;SDS011;57702;44.420;20.298;2023-01-25T11:12:20;25.70;;;14.32;;
70297;SDS011;57702;44.420;20.298;2023-01-25T11:14:47;39.42;;;14.95;;
70297;SDS011;57702;44.420;20.298;2023-01-25T11:17:29;5.95;;;5.38;;
70297;SDS011;57702;44.420;20.298;2023-01-25T11:22:54;12.65;;;6.72;;
70297;SDS011;57702;44.420;20.298;2023-01-25T11:25:30;25.63;;;8.25;;
70297;SDS011;57702;44.420;20.298;2023-01-25T11:28:10;20.08;;;7.72;;
70297;SDS011;57702;44.420;20.298;2023-01-25T11:30:36;32.85;;;10.90;;
70297;SDS011;57702;44.420;20.298;2023-01-25T11:33:07;35.25;;;17.80;;
70297;SDS011;57702;44.420;20.298;2023-01-25T11:35:35;49.22;;;19.63;;
70297;SDS011;57702;44.420;20.298;2023-01-25T11:38:10;59.85;;;19.50;;
70297;SDS011;57702;44.420;20.298;2023-01-25T11:43:54;106.20;;;42.83;;
70297;SDS011;57702;44.420;20.298;2023-01-25T11:45:58;98.32;;;42.53;;
70297;SDS011;57702;44.420;20.298;2023-01-25T11:48:35;155.00;;;45.63;;
70297;SDS011;57702;44.420;20.298;2023-01-25T11:51:17;117.32;;;43.22;;
70297;SDS011;57702;44.420;20.298;2023-01-25T11:56:17;81.65;;;31.08;;
70297;SDS011;57702;44.420;20.298;2023-01-25T11:58:55;82.32;;;28.92;;
70297;SDS011;57702;44.420;20.298;2023-01-25T12:24:40;6.50;;;6.00;;
70297;SDS011;57702;44.420;20.298;2023-01-25T12:29:51;19.55;;;6.82;;
70297;SDS011;57702;44.420;20.298;2023-01-25T12:35:39;16.02;;;7.55;;
70297;SDS011;57702;44.420;20.298;2023-01-25T12:46:34;13.32;;;5.57;;
70297;SDS011;57702;44.420;20.298;2023-01-25T12:49:05;35.53;;;10.25;;
70297;SDS011;57702;44.420;20.298;2023-01-25T12:51:36;14.70;;;8.88;;
70297;SDS011;57702;44.420;20.298;2023-01-25T12:54:09;7.88;;;7.03;;
70297;SDS011;57702;44.420;20.298;2023-01-25T12:56:41;4.97;;;3.33;;
70297;SDS011;57702;44.420;20.298;2023-01-25T12:59:19;14.00;;;5.97;;
70297;SDS011;57702;44.420;20.298;2023-01-25T13:09:21;7.05;;;3.38;;
70297;SDS011;57702;44.420;20.298;2023-01-25T13:11:48;6.45;;;3.45;;
70297;SDS011;57702;44.420;20.298;2023-01-25T13:16:45;5.30;;;4.60;;
70297;SDS011;57702;44.420;20.298;2023-01-25T13:19:37;22.90;;;6.65;;
70297;SDS011;57702;44.420;20.298;2023-01-25T13:22:07;29.52;;;10.07;;
70297;SDS011;57702;44.420;20.298;2023-01-25T13:24:34;16.85;;;9.45;;
70297;SDS011;57702;44.420;20.298;2023-01-25T13:27:24;35.92;;;18.13;;
70297;SDS011;57702;44.420;20.298;2023-01-25T13:29:59;3.67;;;3.38;;
70297;SDS011;57702;44.420;20.298;2023-01-25T13:32:51;14.68;;;7.60;;
70297;SDS011;57702;44.420;20.298;2023-01-25T13:35:35;34.53;;;11.85;;
70297;SDS011;57702;44.420;20.298;2023-01-25T13:38:44;20.20;;;8.50;;
70297;SDS011;57702;44.420;20.298;2023-01-25T13:41:02;48.60;;;18.35;;
70297;SDS011;57702;44.420;20.298;2023-01-25T13:43:28;20.58;;;13.00;;
70297;SDS011;57702;44.420;20.298;2023-01-25T13:45:55;9.32;;;8.50;;
70297;SDS011;57702;44.420;20.298;2023-01-25T13:48:22;7.00;;;4.85;;
70297;SDS011;57702;44.420;20.298;2023-01-25T13:50:56;3.72;;;2.78;;
70297;SDS011;57702;44.420;20.298;2023-01-25T13:53:25;30.85;;;2.70;;
70297;SDS011;57702;44.420;20.298;2023-01-25T13:55:59;2.13;;;1.65;;
70297;SDS011;57702;44.420;20.298;2023-01-25T13:58:30;14.95;;;3.28;;
70297;SDS011;57702;44.420;20.298;2023-01-25T14:01:06;10.02;;;5.30;;
70297;SDS011;57702;44.420;20.298;2023-01-25T14:03:45;20.10;;;6.20;;
70297;SDS011;57702;44.420;20.298;2023-01-25T14:06:16;9.38;;;6.43;;
70297;SDS011;57702;44.420;20.298;2023-01-25T14:08:43;11.13;;;3.53;;
70297;SDS011;57702;44.420;20.298;2023-01-25T14:11:10;1.83;;;1.63;;
70297;SDS011;57702;44.420;20.298;2023-01-25T14:14:15;33.58;;;14.60;;
70297;SDS011;57702;44.420;20.298;2023-01-25T14:16:29;103.07;;;18.45;;
70297;SDS011;57702;44.420;20.298;2023-01-25T14:21:41;10.95;;;6.35;;
70297;SDS011;57702;44.420;20.298;2023-01-25T14:24:07;6.18;;;5.57;;
70297;SDS011;57702;44.420;20.298;2023-01-25T14:26:35;7.20;;;5.63;;
70297;SDS011;57702;44.420;20.298;2023-01-25T14:29:03;16.05;;;9.18;;
70297;SDS011;57702;44.420;20.298;2023-01-25T14:31:38;25.35;;;10.77;;
70297;SDS011;57702;44.420;20.298;2023-01-25T14:34:04;25.60;;;9.55;;
70297;SDS011;57702;44.420;20.298;2023-01-25T14:36:32;25.27;;;11.18;;
70297;SDS011;57702;44.420;20.298;2023-01-25T14:38:59;8.85;;;5.43;;
70297;SDS011;57702;44.420;20.298;2023-01-25T14:41:30;13.73;;;5.10;;
70297;SDS011;57702;44.420;20.298;2023-01-25T14:43:58;4.85;;;3.33;;
70297;SDS011;57702;44.420;20.298;2023-01-25T14:49:08;16.35;;;8.38;;
70297;SDS011;57702;44.420;20.298;2023-01-25T14:51:38;22.13;;;7.93;;
70297;SDS011;57702;44.420;20.298;2023-01-25T14:54:11;8.73;;;4.15;;
70297;SDS011;57702;44.420;20.298;2023-01-25T14:56:42;11.70;;;8.35;;
70297;SDS011;57702;44.420;20.298;2023-01-25T14:59:43;11.38;;;7.13;;
70297;SDS011;57702;44.420;20.298;2023-01-25T15:04:49;9.40;;;6.20;;
70297;SDS011;57702;44.420;20.298;2023-01-25T15:07:35;14.40;;;6.38;;
70297;SDS011;57702;44.420;20.298;2023-01-25T15:10:24;82.20;;;18.73;;
70297;SDS011;57702;44.420;20.298;2023-01-25T15:12:59;24.98;;;10.88;;
70297;SDS011;57702;44.420;20.298;2023-01-25T15:15:27;17.13;;;8.35;;
70297;SDS011;57702;44.420;20.298;2023-01-25T15:17:53;4.57;;;4.10;;
70297;SDS011;57702;44.420;20.298;2023-01-25T15:22:55;3.80;;;3.33;;
70297;SDS011;57702;44.420;20.298;2023-01-25T15:25:22;13.48;;;3.55;;
70297;SDS011;57702;44.420;20.298;2023-01-25T15:27:48;14.55;;;5.18;;
70297;SDS011;57702;44.420;20.298;2023-01-25T15:30:15;3.05;;;2.80;;
70297;SDS011;57702;44.420;20.298;2023-01-25T15:32:42;11.95;;;3.97;;
70297;SDS011;57702;44.420;20.298;2023-01-25T15:35:12;3.83;;;3.28;;
70297;SDS011;57702;44.420;20.298;2023-01-25T15:37:39;15.10;;;4.60;;
70297;SDS011;57702;44.420;20.298;2023-01-25T15:40:05;9.45;;;5.57;;
70297;SDS011;57702;44.420;20.298;2023-01-25T15:42:32;8.73;;;2.88;;
70297;SDS011;57702;44.420;20.298;2023-01-25T15:44:58;11.45;;;4.45;;
70297;SDS011;57702;44.420;20.298;2023-01-25T15:47:27;22.50;;;8.23;;
70297;SDS011;57702;44.420;20.298;2023-01-25T15:49:54;53.05;;;10.75;;
70297;SDS011;57702;44.420;20.298;2023-01-25T15:52:20;41.58;;;8.18;;
70297;SDS011;57702;44.420;20.298;2023-01-25T15:54:46;12.65;;;5.75;;
70297;SDS011;57702;44.420;20.298;2023-01-25T15:57:30;9.00;;;3.53;;
70297;SDS011;57702;44.420;20.298;2023-01-25T15:59:57;25.20;;;5.38;;
70297;SDS011;57702;44.420;20.298;2023-01-25T16:02:23;19.23;;;7.32;;
70297;SDS011;57702;44.420;20.298;2023-01-25T16:04:51;4.95;;;4.10;;
70297;SDS011;57702;44.420;20.298;2023-01-25T16:07:35;8.18;;;5.07;;
70297;SDS011;57702;44.420;20.298;2023-01-25T16:10:02;5.72;;;5.22;;
70297;SDS011;57702;44.420;20.298;2023-01-25T16:12:28;19.40;;;5.75;;
70297;SDS011;57702;44.420;20.298;2023-01-25T16:14:57;11.60;;;6.15;;
70297;SDS011;57702;44.420;20.298;2023-01-25T16:17:23;22.35;;;9.80;;